createdAt,value
2022-10-09T00:01:13.939Z,99.00
2022-10-09T00:03:44.858Z,98.90
2022-10-09T00:06:16.410Z,99.00
2022-10-09T00:08:44.860Z,99.10
2022-10-09T00:11:14.555Z,99.10
2022-10-09T00:13:44.258Z,99.00
2022-10-09T00:16:14.160Z,99.20
2022-10-09T00:18:43.218Z,99.20
2022-10-09T00:21:20.041Z,99.20
2022-10-09T00:23:48.526Z,99.40
2022-10-09T00:26:17.086Z,99.50
2022-10-09T00:28:47.254Z,99.70
2022-10-09T00:31:16.351Z,99.60
2022-10-09T00:33:44.881Z,99.50
2022-10-09T00:36:15.270Z,99.30
2022-10-09T00:38:43.393Z,98.70
2022-10-09T00:41:15.933Z,98.60
2022-10-09T00:43:48.445Z,98.70
2022-10-09T00:46:34.579Z,98.80
2022-10-09T00:49:14.503Z,98.80
2022-10-09T00:51:43.519Z,98.90
2022-10-09T00:54:14.966Z,99.00
2022-10-09T00:56:43.538Z,99.10
2022-10-09T00:59:14.006Z,99.50
2022-10-09T01:01:42.724Z,99.80
2022-10-09T01:04:10.986Z,99.90
2022-10-09T01:06:51.067Z,99.90
2022-10-09T01:09:21.411Z,99.80
2022-10-09T01:11:57.071Z,99.60
2022-10-09T01:14:30.732Z,99.40
2022-10-09T01:17:06.631Z,99.30
2022-10-09T01:19:51.123Z,99.20
2022-10-09T01:22:34.030Z,99.10
2022-10-09T01:25:07.460Z,98.90
2022-10-09T01:27:38.659Z,99.10
2022-10-09T01:30:09.717Z,99.40
2022-10-09T01:32:40.648Z,99.50
2022-10-09T01:35:12.268Z,99.80
2022-10-09T01:37:43.644Z,99.80
2022-10-09T01:40:13.706Z,99.80
2022-10-09T01:42:43.162Z,99.80
2022-10-09T01:45:13.294Z,99.80
2022-10-09T01:47:41.595Z,99.90
2022-10-09T01:50:16.897Z,99.80
2022-10-09T01:52:49.312Z,99.90
2022-10-09T01:55:39.577Z,99.90
2022-10-09T01:58:15.798Z,99.90
2022-10-09T02:00:49.360Z,99.90
2022-10-09T02:03:18.263Z,99.90
2022-10-09T02:05:49.457Z,99.90
2022-10-09T02:08:20.362Z,99.80
2022-10-09T02:10:51.803Z,99.70
2022-10-09T02:13:22.084Z,99.70
2022-10-09T02:16:01.307Z,99.70
2022-10-09T02:18:36.693Z,99.80
2022-10-09T02:21:12.002Z,99.70
2022-10-09T02:23:42.600Z,99.90
2022-10-09T02:26:14.470Z,99.90
2022-10-09T02:28:46.149Z,99.90
2022-10-09T02:31:20.996Z,99.90
2022-10-09T02:33:56.075Z,99.60
2022-10-09T02:36:24.335Z,99.70
2022-10-09T02:38:52.363Z,99.60
2022-10-09T02:41:20.274Z,99.80
2022-10-09T02:43:49.728Z,99.70
2022-10-09T02:46:18.027Z,99.70
2022-10-09T02:48:46.314Z,99.80
2022-10-09T02:51:14.339Z,99.80
2022-10-09T02:53:42.358Z,99.60
2022-10-09T02:56:10.670Z,99.70
2022-10-09T02:58:39.605Z,99.60
2022-10-09T03:01:09.060Z,99.70
2022-10-09T03:03:37.196Z,99.80
2022-10-09T03:06:09.438Z,99.50
2022-10-09T03:08:37.732Z,99.70
2022-10-09T03:11:07.153Z,99.60
2022-10-09T03:13:35.105Z,99.60
2022-10-09T03:16:08.904Z,99.50
2022-10-09T03:18:37.507Z,99.60
2022-10-09T03:21:07.654Z,99.70
2022-10-09T03:23:36.087Z,99.50
2022-10-09T03:26:07.123Z,99.60
2022-10-09T03:28:37.024Z,99.60
2022-10-09T03:31:05.348Z,99.40
2022-10-09T03:33:35.023Z,99.40
2022-10-09T03:36:03.543Z,99.60
2022-10-09T03:38:31.551Z,99.70
2022-10-09T03:40:59.967Z,99.90
2022-10-09T03:43:28.837Z,99.80
2022-10-09T03:46:00.894Z,99.70
2022-10-09T03:48:29.075Z,99.80
2022-10-09T03:50:58.423Z,99.80
2022-10-09T03:53:26.463Z,99.50
2022-10-09T03:55:54.424Z,99.50
2022-10-09T03:58:22.389Z,99.50
2022-10-09T04:00:52.178Z,99.50
2022-10-09T04:03:20.843Z,99.90
2022-10-09T04:05:49.229Z,99.70
2022-10-09T04:08:18.633Z,99.90
2022-10-09T04:10:46.592Z,99.90
2022-10-09T04:13:14.529Z,99.70
2022-10-09T04:15:51.404Z,99.60
2022-10-09T04:18:19.983Z,99.70
2022-10-09T04:20:51.185Z,99.80
2022-10-09T04:23:21.583Z,99.80
2022-10-09T04:25:49.615Z,99.90
2022-10-09T04:28:17.863Z,99.90
2022-10-09T04:30:45.836Z,99.80
2022-10-09T04:33:13.822Z,99.40
2022-10-09T04:35:43.345Z,99.10
2022-10-09T04:38:11.501Z,99.10
2022-10-09T04:40:40.873Z,99.30
2022-10-09T04:43:09.412Z,99.60
2022-10-09T04:45:40.804Z,99.70
2022-10-09T04:48:08.801Z,99.60
2022-10-09T04:50:39.807Z,99.80
2022-10-09T04:53:09.365Z,99.60
2022-10-09T04:55:41.531Z,99.20
2022-10-09T04:58:09.494Z,99.70
2022-10-09T05:00:42.186Z,99.50
2022-10-09T05:03:10.968Z,99.60
2022-10-09T05:05:39.106Z,99.60
2022-10-09T05:08:07.136Z,99.30
2022-10-09T05:10:35.142Z,99.60
2022-10-09T05:13:04.646Z,99.90
2022-10-09T05:15:32.767Z,99.40
2022-10-09T05:18:00.805Z,99.70
2022-10-09T05:20:28.778Z,99.80
2022-10-09T05:22:56.804Z,99.60
2022-10-09T05:25:24.896Z,99.50
2022-10-09T05:27:53.331Z,99.80
2022-10-09T05:30:22.661Z,99.80
2022-10-09T05:32:50.872Z,99.70
2022-10-09T05:35:19.226Z,99.20
2022-10-09T05:37:47.616Z,99.40
2022-10-09T05:40:15.693Z,99.60
2022-10-09T05:42:43.650Z,99.50
2022-10-09T05:45:12.181Z,99.70
2022-10-09T05:47:41.633Z,99.80
2022-10-09T05:50:10.571Z,99.70
2022-10-09T05:52:39.951Z,99.90
2022-10-09T05:55:08.635Z,99.90
2022-10-09T05:57:36.591Z,99.90
2022-10-09T06:00:05.808Z,99.90
2022-10-09T06:02:33.825Z,99.90
2022-10-09T06:05:03.214Z,99.90
2022-10-09T06:07:32.092Z,99.90
2022-10-09T06:10:00.140Z,99.90
2022-10-09T06:12:28.231Z,99.90
2022-10-09T06:14:56.467Z,99.90
2022-10-09T06:17:24.536Z,99.90
2022-10-09T06:19:52.443Z,99.90
2022-10-09T06:22:21.864Z,99.90
2022-10-09T06:24:49.833Z,99.90
2022-10-09T06:27:17.963Z,99.90
2022-10-09T06:29:45.996Z,99.90
2022-10-09T06:32:13.966Z,99.90
2022-10-09T06:34:42.002Z,99.90
2022-10-09T06:37:09.946Z,99.90
2022-10-09T06:39:39.320Z,99.90
2022-10-09T06:42:07.303Z,99.90
2022-10-09T06:44:35.254Z,99.90
2022-10-09T06:47:03.297Z,99.90
2022-10-09T06:49:31.295Z,99.90
2022-10-09T06:51:59.260Z,99.90
2022-10-09T06:54:27.193Z,99.90
2022-10-09T06:56:56.608Z,99.60
2022-10-09T06:59:24.587Z,99.30
2022-10-09T07:01:52.617Z,99.40
2022-10-09T07:04:21.580Z,99.90
2022-10-09T07:06:49.538Z,99.90
2022-10-09T07:09:17.702Z,99.90
2022-10-09T07:11:46.819Z,99.90
2022-10-09T07:14:16.857Z,99.90
2022-10-09T07:16:46.932Z,99.90
2022-10-09T07:19:15.877Z,99.80
2022-10-09T07:21:45.856Z,99.90
2022-10-09T07:24:14.637Z,99.90
2022-10-09T07:26:45.334Z,99.90
2022-10-09T07:29:16.744Z,99.80
2022-10-09T07:31:44.934Z,99.80
2022-10-09T07:34:12.880Z,99.50
2022-10-09T07:36:40.889Z,99.30
2022-10-09T07:39:09.167Z,99.60
2022-10-09T07:41:37.403Z,98.80
2022-10-09T07:44:05.470Z,98.20
2022-10-09T07:46:35.023Z,97.90
2022-10-09T07:49:03.443Z,98.00
2022-10-09T07:51:32.618Z,97.90
2022-10-09T07:54:01.897Z,97.90
2022-10-09T07:56:32.614Z,97.40
2022-10-09T07:59:02.369Z,96.90
2022-10-09T08:01:32.068Z,97.30
2022-10-09T08:04:02.147Z,97.30
2022-10-09T08:06:30.531Z,96.70
2022-10-09T08:09:00.043Z,96.50
2022-10-09T08:11:29.476Z,96.50
2022-10-09T08:13:58.051Z,96.60
2022-10-09T08:16:27.150Z,96.70
2022-10-09T08:18:56.787Z,96.70
2022-10-09T08:21:27.876Z,97.10
2022-10-09T08:23:57.507Z,96.60
2022-10-09T08:26:27.190Z,96.60
2022-10-09T08:28:57.096Z,96.10
2022-10-09T08:31:25.821Z,95.60
2022-10-09T08:33:54.748Z,95.00
2022-10-09T08:36:22.934Z,95.00
2022-10-09T08:38:52.411Z,94.50
2022-10-09T08:41:28.827Z,95.00
2022-10-09T08:44:02.162Z,94.90
2022-10-09T08:46:35.959Z,95.30
2022-10-09T08:49:06.275Z,94.80
2022-10-09T08:51:39.191Z,94.90
2022-10-09T08:54:19.892Z,94.40
2022-10-09T08:56:50.829Z,94.40
2022-10-09T08:59:18.932Z,94.10
2022-10-09T09:01:57.067Z,94.40
2022-10-09T09:04:54.607Z,94.20
2022-10-09T09:07:32.739Z,94.20
2022-10-09T09:10:11.846Z,93.20
2022-10-09T09:12:49.991Z,92.80
2022-10-09T09:15:39.912Z,92.10
2022-10-09T09:18:21.401Z,92.20
2022-10-09T09:20:54.024Z,92.10
2022-10-09T09:23:26.838Z,92.10
2022-10-09T09:25:56.995Z,92.30
2022-10-09T09:28:29.621Z,91.80
2022-10-09T09:31:02.549Z,90.70
2022-10-09T09:33:43.639Z,91.20
2022-10-09T09:36:21.751Z,90.80
2022-10-09T09:39:26.062Z,90.00
2022-10-09T09:41:42.074Z,90.00
2022-10-09T09:44:12.287Z,89.70
2022-10-09T09:46:41.121Z,89.10
2022-10-09T09:49:17.001Z,90.00
2022-10-09T09:51:45.128Z,87.40
2022-10-09T09:54:19.526Z,88.10
2022-10-09T09:59:40.042Z,85.90
2022-10-09T10:02:14.561Z,85.60
2022-10-09T10:04:51.341Z,88.10
2022-10-09T10:07:29.694Z,84.70
2022-10-09T10:10:09.362Z,85.20
2022-10-09T10:12:43.596Z,86.50
2022-10-09T10:15:22.171Z,85.60
2022-10-09T10:17:58.379Z,86.30
2022-10-09T10:20:28.532Z,86.20
2022-10-09T10:22:58.736Z,85.40
2022-10-09T10:25:31.799Z,86.00
2022-10-09T10:28:07.003Z,85.20
2022-10-09T10:30:36.931Z,84.90
2022-10-09T10:33:15.633Z,83.90
2022-10-09T10:35:51.380Z,82.60
2022-10-09T10:38:25.055Z,82.80
2022-10-09T10:40:57.905Z,84.40
2022-10-09T10:43:37.288Z,83.60
2022-10-09T10:46:14.216Z,83.00
2022-10-09T10:48:46.599Z,81.50
2022-10-09T10:51:37.607Z,82.70
2022-10-09T10:54:17.794Z,81.60
2022-10-09T10:56:49.851Z,80.50
2022-10-09T10:59:31.122Z,78.80
2022-10-09T11:02:32.530Z,80.20
2022-10-09T11:05:12.056Z,79.60
2022-10-09T11:07:48.254Z,78.50
2022-10-09T11:10:23.227Z,78.20
2022-10-09T11:12:56.884Z,77.80
2022-10-09T11:15:37.400Z,76.60
2022-10-09T11:18:19.530Z,77.40
2022-10-09T11:21:09.128Z,76.20
2022-10-09T11:23:55.650Z,74.60
2022-10-09T11:26:30.199Z,74.10
2022-10-09T11:29:03.223Z,74.40
2022-10-09T11:31:37.897Z,74.30
2022-10-09T11:34:11.506Z,74.80
2022-10-09T11:36:42.579Z,74.80
2022-10-09T11:39:15.962Z,75.60
2022-10-09T11:41:46.808Z,75.60
2022-10-09T11:44:51.531Z,77.70
2022-10-09T11:47:30.898Z,77.20
2022-10-09T11:50:11.836Z,78.00
2022-10-09T11:52:48.848Z,77.00
2022-10-09T11:55:20.369Z,78.00
2022-10-09T11:57:48.852Z,78.80
2022-10-09T12:00:18.105Z,77.50
2022-10-09T12:02:59.034Z,80.80
2022-10-09T12:05:36.878Z,79.20
2022-10-09T12:08:12.955Z,80.20
2022-10-09T12:10:50.799Z,80.10
2022-10-09T12:13:43.410Z,79.80
2022-10-09T12:16:27.995Z,80.00
2022-10-09T12:18:59.219Z,80.70
2022-10-09T12:21:31.901Z,79.10
2022-10-09T12:24:00.738Z,80.50
2022-10-09T12:26:29.772Z,79.10
2022-10-09T12:29:01.760Z,78.60
2022-10-09T12:31:34.383Z,78.50
2022-10-09T12:34:07.252Z,78.80
2022-10-09T12:36:35.215Z,80.10
2022-10-09T12:39:16.465Z,81.00
2022-10-09T12:42:26.557Z,81.50
2022-10-09T12:44:56.581Z,81.40
2022-10-09T12:47:27.503Z,81.30
2022-10-09T12:49:59.293Z,81.30
2022-10-09T12:52:28.034Z,81.90
2022-10-09T12:54:56.248Z,80.80
2022-10-09T12:57:27.868Z,79.70
2022-10-09T12:59:56.800Z,78.70
2022-10-09T13:02:25.047Z,78.60
2022-10-09T13:05:00.079Z,78.90
2022-10-09T13:07:30.202Z,78.90
2022-10-09T13:10:01.860Z,78.80
2022-10-09T13:12:31.306Z,78.90
2022-10-09T13:15:00.537Z,80.70
2022-10-09T13:20:04.000Z,80.10
2022-10-09T13:22:33.656Z,80.00
2022-10-09T13:25:03.104Z,79.40
2022-10-09T13:27:33.739Z,78.60
2022-10-09T13:30:02.365Z,78.00
2022-10-09T13:32:30.926Z,78.50
2022-10-09T13:34:58.875Z,78.90
2022-10-09T13:37:28.827Z,78.80
2022-10-09T13:39:59.430Z,78.70
2022-10-09T13:42:29.459Z,79.20
2022-10-09T13:44:57.530Z,78.40
2022-10-09T13:47:25.805Z,79.00
2022-10-09T13:49:53.720Z,79.40
2022-10-09T13:52:22.115Z,79.20
2022-10-09T13:54:51.488Z,79.10
2022-10-09T13:57:19.536Z,79.00
2022-10-09T13:59:47.525Z,78.50
2022-10-09T14:02:15.511Z,79.60
2022-10-09T14:04:44.328Z,78.40
2022-10-09T14:07:12.677Z,78.70
2022-10-09T14:09:40.809Z,79.40
2022-10-09T14:12:10.317Z,79.20
2022-10-09T14:14:38.356Z,79.00
2022-10-09T14:17:06.456Z,78.50
2022-10-09T14:19:34.436Z,77.70
2022-10-09T14:22:02.379Z,78.40
2022-10-09T14:24:30.306Z,78.70
2022-10-09T14:26:58.307Z,78.10
2022-10-09T14:29:27.676Z,78.40
2022-10-09T14:31:55.654Z,78.50
2022-10-09T14:34:23.910Z,78.40
2022-10-09T14:36:52.356Z,76.70
2022-10-09T14:39:20.591Z,76.60
2022-10-09T14:41:48.860Z,75.60
2022-10-09T14:44:16.857Z,75.70
2022-10-09T14:46:46.622Z,76.10
2022-10-09T14:49:14.550Z,74.80
2022-10-09T14:51:42.725Z,73.00
2022-10-09T14:54:12.576Z,73.20
2022-10-09T14:56:41.057Z,74.30
2022-10-09T14:59:09.284Z,72.60
2022-10-09T15:01:37.476Z,73.80
2022-10-09T15:04:07.416Z,75.10
2022-10-09T15:06:35.698Z,74.50
2022-10-09T15:09:06.232Z,76.10
2022-10-09T15:11:35.882Z,75.30
2022-10-09T15:14:04.909Z,75.90
2022-10-09T15:16:33.857Z,74.50
2022-10-09T15:19:02.402Z,75.70
2022-10-09T15:21:34.467Z,75.50
2022-10-09T15:24:03.869Z,74.50
2022-10-09T15:26:33.810Z,75.50
2022-10-09T15:29:03.277Z,76.10
2022-10-09T15:31:33.079Z,75.80
2022-10-09T15:34:02.159Z,76.80
2022-10-09T15:36:34.684Z,77.90
2022-10-09T15:39:05.914Z,78.20
2022-10-09T15:41:35.915Z,78.90
2022-10-09T15:44:06.504Z,78.80
2022-10-09T15:46:35.023Z,78.80
2022-10-09T15:49:03.008Z,79.80
2022-10-09T15:51:33.232Z,80.00
2022-10-09T15:54:02.257Z,80.30
2022-10-09T15:56:33.821Z,80.40
2022-10-09T15:59:04.007Z,80.50
2022-10-09T16:01:36.690Z,80.90
2022-10-09T16:04:04.714Z,81.00
2022-10-09T16:06:34.120Z,81.20
2022-10-09T16:09:03.894Z,81.50
2022-10-09T16:11:32.214Z,82.00
2022-10-09T16:14:00.459Z,82.50
2022-10-09T16:16:28.635Z,82.90
2022-10-09T16:18:57.226Z,83.30
2022-10-09T16:21:29.552Z,82.80
2022-10-09T16:23:59.743Z,83.20
2022-10-09T16:26:30.577Z,83.40
2022-10-09T16:29:00.807Z,84.50
2022-10-09T16:31:31.169Z,84.30
2022-10-09T16:33:59.608Z,85.30
2022-10-09T16:36:28.617Z,85.30
2022-10-09T16:38:59.419Z,86.10
2022-10-09T16:41:27.452Z,86.10
2022-10-09T16:43:57.202Z,86.10
2022-10-09T16:46:28.697Z,86.60
2022-10-09T16:48:58.032Z,87.10
2022-10-09T16:51:29.179Z,87.50
2022-10-09T16:54:01.470Z,87.40
2022-10-09T16:56:33.045Z,88.50
2022-10-09T16:59:03.125Z,89.30
2022-10-09T17:01:32.250Z,89.50
2022-10-09T17:04:01.248Z,89.20
2022-10-09T17:06:29.441Z,88.80
2022-10-09T17:09:00.866Z,88.70
2022-10-09T17:11:31.154Z,88.90
2022-10-09T17:13:59.941Z,88.60
2022-10-09T17:16:30.063Z,88.30
2022-10-09T17:18:59.511Z,88.80
2022-10-09T17:21:31.131Z,89.20
2022-10-09T17:24:05.305Z,89.90
2022-10-09T17:26:34.402Z,90.10
2022-10-09T17:29:04.211Z,90.30
2022-10-09T17:31:33.092Z,90.10
2022-10-09T17:34:03.181Z,90.10
2022-10-09T17:36:33.924Z,90.40
2022-10-09T17:39:04.111Z,90.60
2022-10-09T17:41:32.644Z,91.00
2022-10-09T17:44:02.098Z,91.10
2022-10-09T17:46:30.727Z,91.00
2022-10-09T17:49:00.027Z,90.90
2022-10-09T17:51:30.429Z,90.90
2022-10-09T17:54:00.826Z,90.70
2022-10-09T17:56:31.484Z,91.00
2022-10-09T17:59:00.201Z,91.10
2022-10-09T18:01:29.226Z,91.70
2022-10-09T18:03:57.739Z,91.60
2022-10-09T18:06:26.468Z,91.70
2022-10-09T18:08:57.892Z,92.10
2022-10-09T18:11:27.221Z,92.40
2022-10-09T18:13:57.032Z,92.40
2022-10-09T18:16:35.202Z,92.90
2022-10-09T18:19:06.839Z,92.60
2022-10-09T18:21:35.643Z,93.00
2022-10-09T18:24:03.827Z,92.60
2022-10-09T18:26:31.799Z,92.40
2022-10-09T18:29:02.088Z,92.20
2022-10-09T18:31:31.093Z,92.20
2022-10-09T18:34:00.021Z,92.20
2022-10-09T18:36:33.388Z,92.50
2022-10-09T18:39:02.878Z,92.50
2022-10-09T18:41:30.998Z,92.60
2022-10-09T18:44:01.371Z,92.60
2022-10-09T18:46:33.052Z,92.80
2022-10-09T18:49:01.684Z,92.70
2022-10-09T18:51:30.235Z,92.60
2022-10-09T18:54:01.845Z,92.50
2022-10-09T18:56:32.652Z,92.60
2022-10-09T18:59:04.795Z,92.50
2022-10-09T19:01:32.837Z,92.40
2022-10-09T19:04:01.010Z,92.20
2022-10-09T19:06:29.586Z,92.10
2022-10-09T19:09:00.681Z,92.00
2022-10-09T19:11:29.807Z,91.60
2022-10-09T19:13:59.659Z,91.40
2022-10-09T19:16:29.712Z,91.60
2022-10-09T19:18:57.793Z,91.60
2022-10-09T19:21:25.987Z,91.80
2022-10-09T19:23:54.760Z,92.10
2022-10-09T19:26:24.284Z,92.20
2022-10-09T19:28:52.259Z,92.10
2022-10-09T19:31:20.285Z,92.10
2022-10-09T19:33:49.594Z,92.00
2022-10-09T19:36:18.265Z,91.90
2022-10-09T19:38:46.735Z,91.90
2022-10-09T19:41:16.610Z,91.80
2022-10-09T19:43:44.874Z,91.70
2022-10-09T19:46:14.802Z,91.80
2022-10-09T19:48:42.983Z,91.70
2022-10-09T19:51:14.204Z,92.00
2022-10-09T19:53:43.369Z,91.80
2022-10-09T19:56:12.707Z,91.80
2022-10-09T19:58:41.865Z,91.80
2022-10-09T20:01:11.167Z,91.80
2022-10-09T20:03:39.498Z,91.80
2022-10-09T20:06:09.419Z,92.10
2022-10-09T20:08:39.993Z,92.40
2022-10-09T20:11:08.683Z,92.30
2022-10-09T20:13:38.631Z,92.60
2022-10-09T20:16:10.171Z,92.60
2022-10-09T20:18:42.208Z,92.60
2022-10-09T20:21:11.608Z,92.80
2022-10-09T20:23:41.024Z,92.80
2022-10-09T20:26:12.221Z,92.80
2022-10-09T20:28:40.651Z,92.90
2022-10-09T20:31:14.508Z,93.00
2022-10-09T20:33:43.446Z,93.10
2022-10-09T20:36:20.157Z,93.00
2022-10-09T20:38:49.687Z,93.20
2022-10-09T20:41:18.088Z,93.10
2022-10-09T20:43:46.295Z,93.20
2022-10-09T20:46:15.838Z,93.10
2022-10-09T20:48:44.763Z,93.20
2022-10-09T20:51:12.691Z,93.00
2022-10-09T20:53:41.183Z,93.10
2022-10-09T20:56:13.039Z,93.10
2022-10-09T20:58:41.652Z,93.30
2022-10-09T21:01:12.391Z,93.30
2022-10-09T21:03:40.551Z,93.40
2022-10-09T21:06:11.250Z,93.60
2022-10-09T21:08:39.931Z,93.40
2022-10-09T21:11:11.157Z,93.50
2022-10-09T21:13:41.611Z,93.60
2022-10-09T21:16:12.652Z,93.60
2022-10-09T21:18:41.214Z,93.50
2022-10-09T21:21:12.473Z,93.70
2022-10-09T21:23:40.527Z,93.50
2022-10-09T21:26:14.083Z,93.60
2022-10-09T21:28:42.474Z,93.60
2022-10-09T21:31:11.751Z,93.70
2022-10-09T21:33:39.684Z,93.70
2022-10-09T21:36:11.715Z,93.60
2022-10-09T21:38:39.845Z,93.70
2022-10-09T21:41:07.825Z,93.70
2022-10-09T21:43:37.243Z,93.70
2022-10-09T21:46:05.365Z,93.60
2022-10-09T21:48:33.320Z,93.50
2022-10-09T21:51:01.279Z,93.60
2022-10-09T21:53:29.255Z,93.60
2022-10-09T21:55:57.221Z,93.50
2022-10-09T21:58:25.199Z,93.50
2022-10-09T22:00:58.832Z,93.70
2022-10-09T22:03:27.339Z,93.60
2022-10-09T22:05:55.738Z,93.90
2022-10-09T22:08:24.607Z,94.30
2022-10-09T22:10:52.574Z,94.40
2022-10-09T22:13:21.659Z,94.50
2022-10-09T22:15:51.351Z,94.60
2022-10-09T22:18:21.116Z,94.70
2022-10-09T22:20:51.232Z,94.60
2022-10-09T22:23:21.075Z,94.70
2022-10-09T22:25:57.790Z,94.60
2022-10-09T22:28:25.831Z,94.80
2022-10-09T22:31:02.801Z,94.90
2022-10-09T22:33:32.387Z,95.20
2022-10-09T22:36:05.779Z,95.30
2022-10-09T22:38:34.188Z,95.40
2022-10-09T22:41:07.279Z,95.50
2022-10-09T22:43:35.403Z,95.30
2022-10-09T22:46:07.121Z,95.60
2022-10-09T22:48:36.841Z,96.00
2022-10-09T22:51:06.658Z,95.80
2022-10-09T22:53:36.906Z,96.00
2022-10-09T22:56:06.527Z,95.90
2022-10-09T22:58:34.825Z,96.10
2022-10-09T23:01:05.821Z,96.20
2022-10-09T23:03:33.940Z,96.20
2022-10-09T23:06:11.422Z,96.50
2022-10-09T23:08:40.487Z,96.70
2022-10-09T23:11:09.078Z,96.60
2022-10-09T23:13:37.867Z,96.20
2022-10-09T23:16:08.415Z,96.20
2022-10-09T23:18:37.243Z,96.30
2022-10-09T23:21:06.265Z,96.40
2022-10-09T23:23:35.951Z,96.50
2022-10-09T23:26:05.240Z,96.50
2022-10-09T23:28:33.281Z,96.60
2022-10-09T23:31:04.767Z,96.30
2022-10-09T23:33:33.860Z,96.30
2022-10-09T23:36:03.087Z,96.30
2022-10-09T23:38:31.093Z,96.60
2022-10-09T23:41:02.261Z,96.50
2022-10-09T23:43:31.546Z,96.90
2022-10-09T23:46:01.870Z,96.80
2022-10-09T23:48:30.449Z,96.80
2022-10-09T23:50:58.763Z,97.00
2022-10-09T23:53:27.696Z,96.80
2022-10-09T23:55:55.923Z,96.80
2022-10-09T23:58:25.381Z,96.90
